sensor_id;sensor_type;location;lat;lon;timestamp;pressure;altitude;pressure_sealevel;temperature;humidity
19590;BME280;12231;42.782;23.388;2023-02-23T00:01:14;95464.31;;;4.47;100.00
19590;BME280;12231;42.782;23.388;2023-02-23T00:03:41;95467.69;;;4.48;100.00
19590;BME280;12231;42.782;23.388;2023-02-23T00:06:08;95464.19;;;4.50;100.00
19590;BME280;12231;42.782;23.388;2023-02-23T00:08:34;95466.81;;;4.49;99.29
19590;BME280;12231;42.782;23.388;2023-02-23T00:11:05;95470.41;;;4.43;99.29
19590;BME280;12231;42.782;23.388;2023-02-23T00:13:32;95475.97;;;4.31;98.21
19590;BME280;12231;42.782;23.388;2023-02-23T00:18:30;95485.75;;;4.20;97.68
19590;BME280;12231;42.782;23.388;2023-02-23T00:21:05;95479.84;;;4.19;97.60
19590;BME280;12231;42.782;23.388;2023-02-23T00:23:31;95485.97;;;4.14;97.60
19590;BME280;12231;42.782;23.388;2023-02-23T00:25:56;95485.06;;;4.15;97.85
19590;BME280;12231;42.782;23.388;2023-02-23T00:28:23;95491.19;;;4.11;97.98
19590;BME280;12231;42.782;23.388;2023-02-23T00:30:49;95485.44;;;4.06;98.40
19590;BME280;12231;42.782;23.388;2023-02-23T00:33:14;95491.97;;;3.90;99.19
19590;BME280;12231;42.782;23.388;2023-02-23T00:35:39;95487.06;;;3.84;98.32
19590;BME280;12231;42.782;23.388;2023-02-23T00:38:06;95492.13;;;3.85;98.90
19590;BME280;12231;42.782;23.388;2023-02-23T00:40:32;95490.34;;;3.87;98.69
19590;BME280;12231;42.782;23.388;2023-02-23T00:42:57;95484.31;;;3.90;98.51
19590;BME280;12231;42.782;23.388;2023-02-23T00:45:23;95481.00;;;3.88;98.34
19590;BME280;12231;42.782;23.388;2023-02-23T00:47:49;95482.53;;;3.92;99.49
19590;BME280;12231;42.782;23.388;2023-02-23T00:50:16;95473.22;;;3.91;100.00
19590;BME280;12231;42.782;23.388;2023-02-23T00:52:42;95474.88;;;3.92;100.00
19590;BME280;12231;42.782;23.388;2023-02-23T00:55:12;95479.41;;;3.84;100.00
19590;BME280;12231;42.782;23.388;2023-02-23T00:57:39;95471.03;;;3.82;100.00
19590;BME280;12231;42.782;23.388;2023-02-23T01:00:05;95474.28;;;3.85;100.00
19590;BME280;12231;42.782;23.388;2023-02-23T01:02:43;95483.72;;;3.83;100.00
19590;BME280;12231;42.782;23.388;2023-02-23T01:05:09;95477.78;;;3.83;100.00
19590;BME280;12231;42.782;23.388;2023-02-23T01:07:36;95477.03;;;3.79;100.00
19590;BME280;12231;42.782;23.388;2023-02-23T01:10:01;95476.97;;;3.81;100.00
19590;BME280;12231;42.782;23.388;2023-02-23T01:12:27;95474.13;;;3.90;100.00
19590;BME280;12231;42.782;23.388;2023-02-23T01:14:52;95471.22;;;3.76;100.00
19590;BME280;12231;42.782;23.388;2023-02-23T01:17:18;95472.16;;;3.73;100.00
19590;BME280;12231;42.782;23.388;2023-02-23T01:19:43;95469.94;;;3.87;100.00
19590;BME280;12231;42.782;23.388;2023-02-23T01:22:09;95474.63;;;3.99;100.00
19590;BME280;12231;42.782;23.388;2023-02-23T01:24:34;95472.56;;;4.09;100.00
19590;BME280;12231;42.782;23.388;2023-02-23T01:26:59;95468.97;;;4.14;100.00
19590;BME280;12231;42.782;23.388;2023-02-23T01:29:25;95470.69;;;4.14;100.00
19590;BME280;12231;42.782;23.388;2023-02-23T01:31:50;95468.19;;;4.12;100.00
19590;BME280;12231;42.782;23.388;2023-02-23T01:34:17;95472.63;;;4.07;100.00
19590;BME280;12231;42.782;23.388;2023-02-23T01:36:43;95474.50;;;4.02;100.00
19590;BME280;12231;42.782;23.388;2023-02-23T01:39:14;95469.59;;;3.98;100.00
19590;BME280;12231;42.782;23.388;2023-02-23T01:41:40;95478.16;;;3.95;100.00
19590;BME280;12231;42.782;23.388;2023-02-23T01:46:39;95483.50;;;3.65;100.00
19590;BME280;12231;42.782;23.388;2023-02-23T01:49:15;95474.16;;;3.65;100.00
19590;BME280;12231;42.782;23.388;2023-02-23T01:51:45;95476.94;;;3.59;100.00
19590;BME280;12231;42.782;23.388;2023-02-23T01:54:19;95478.53;;;3.62;100.00
19590;BME280;12231;42.782;23.388;2023-02-23T01:56:48;95482.84;;;3.60;100.00
19590;BME280;12231;42.782;23.388;2023-02-23T01:59:24;95477.91;;;3.55;100.00
19590;BME280;12231;42.782;23.388;2023-02-23T02:01:53;95478.06;;;3.51;100.00
19590;BME280;12231;42.782;23.388;2023-02-23T02:04:20;95479.72;;;3.52;100.00
19590;BME280;12231;42.782;23.388;2023-02-23T02:06:47;95472.91;;;3.52;100.00
19590;BME280;12231;42.782;23.388;2023-02-23T02:09:18;95467.78;;;3.54;100.00
19590;BME280;12231;42.782;23.388;2023-02-23T02:11:45;95471.84;;;3.58;100.00
19590;BME280;12231;42.782;23.388;2023-02-23T02:14:19;95467.50;;;3.61;100.00
19590;BME280;12231;42.782;23.388;2023-02-23T02:19:58;95460.69;;;3.62;100.00
19590;BME280;12231;42.782;23.388;2023-02-23T02:28:28;95464.69;;;3.92;100.00
19590;BME280;12231;42.782;23.388;2023-02-23T02:34:00;95458.16;;;4.08;100.00
19590;BME280;12231;42.782;23.388;2023-02-23T02:36:56;95471.06;;;4.03;100.00
19590;BME280;12231;42.782;23.388;2023-02-23T02:42:28;95475.56;;;3.49;100.00
19590;BME280;12231;42.782;23.388;2023-02-23T02:45:10;95482.16;;;3.30;100.00
19590;BME280;12231;42.782;23.388;2023-02-23T02:47:48;95477.19;;;3.01;100.00
19590;BME280;12231;42.782;23.388;2023-02-23T02:53:06;95480.25;;;2.86;100.00
19590;BME280;12231;42.782;23.388;2023-02-23T02:55:34;95474.09;;;2.65;100.00
19590;BME280;12231;42.782;23.388;2023-02-23T02:58:04;95475.97;;;2.60;100.00
19590;BME280;12231;42.782;23.388;2023-02-23T03:00:41;95468.78;;;2.47;100.00
19590;BME280;12231;42.782;23.388;2023-02-23T03:03:30;95464.13;;;2.59;100.00
19590;BME280;12231;42.782;23.388;2023-02-23T03:06:14;95469.81;;;2.67;100.00
19590;BME280;12231;42.782;23.388;2023-02-23T03:09:10;95466.31;;;2.70;100.00
19590;BME280;12231;42.782;23.388;2023-02-23T03:12:07;95465.63;;;2.66;100.00
19590;BME280;12231;42.782;23.388;2023-02-23T03:15:20;95469.66;;;2.72;100.00
19590;BME280;12231;42.782;23.388;2023-02-23T03:19:02;95466.22;;;2.74;100.00
19590;BME280;12231;42.782;23.388;2023-02-23T03:21:28;95468.59;;;2.79;100.00
19590;BME280;12231;42.782;23.388;2023-02-23T03:27:27;95478.97;;;2.73;100.00
19590;BME280;12231;42.782;23.388;2023-02-23T03:30:23;95481.34;;;2.51;100.00
19590;BME280;12231;42.782;23.388;2023-02-23T03:33:17;95481.09;;;2.59;100.00
19590;BME280;12231;42.782;23.388;2023-02-23T03:36:16;95490.47;;;2.58;100.00
19590;BME280;12231;42.782;23.388;2023-02-23T03:39:41;95489.06;;;2.48;100.00
19590;BME280;12231;42.782;23.388;2023-02-23T03:42:26;95489.28;;;2.41;100.00
19590;BME280;12231;42.782;23.388;2023-02-23T03:45:14;95491.00;;;2.40;100.00
19590;BME280;12231;42.782;23.388;2023-02-23T03:48:02;95497.94;;;2.35;100.00
19590;BME280;12231;42.782;23.388;2023-02-23T03:50:57;95499.44;;;2.41;100.00
19590;BME280;12231;42.782;23.388;2023-02-23T03:53:47;95496.88;;;2.42;100.00
19590;BME280;12231;42.782;23.388;2023-02-23T03:56:36;95506.19;;;2.43;100.00
19590;BME280;12231;42.782;23.388;2023-02-23T03:59:33;95498.63;;;2.40;100.00
19590;BME280;12231;42.782;23.388;2023-02-23T04:02:20;95494.41;;;2.39;100.00
19590;BME280;12231;42.782;23.388;2023-02-23T04:05:10;95494.31;;;2.42;100.00
19590;BME280;12231;42.782;23.388;2023-02-23T04:07:57;95501.03;;;2.45;100.00
19590;BME280;12231;42.782;23.388;2023-02-23T04:10:54;95501.09;;;2.43;100.00
19590;BME280;12231;42.782;23.388;2023-02-23T04:13:42;95505.25;;;2.46;100.00
19590;BME280;12231;42.782;23.388;2023-02-23T04:16:09;95505.13;;;2.49;100.00
19590;BME280;12231;42.782;23.388;2023-02-23T04:18:37;95507.72;;;2.47;100.00
19590;BME280;12231;42.782;23.388;2023-02-23T04:21:05;95509.38;;;2.50;100.00
19590;BME280;12231;42.782;23.388;2023-02-23T04:23:31;95507.72;;;2.47;100.00
19590;BME280;12231;42.782;23.388;2023-02-23T04:25:57;95498.44;;;2.46;100.00
19590;BME280;12231;42.782;23.388;2023-02-23T04:28:23;95500.16;;;2.46;100.00
19590;BME280;12231;42.782;23.388;2023-02-23T04:30:49;95495.16;;;2.43;100.00
19590;BME280;12231;42.782;23.388;2023-02-23T04:33:17;95497.09;;;2.35;100.00
19590;BME280;12231;42.782;23.388;2023-02-23T04:35:42;95497.16;;;2.33;100.00
19590;BME280;12231;42.782;23.388;2023-02-23T04:38:08;95509.13;;;2.30;100.00
19590;BME280;12231;42.782;23.388;2023-02-23T04:40:34;95505.88;;;2.25;100.00
19590;BME280;12231;42.782;23.388;2023-02-23T04:43:00;95511.84;;;2.24;100.00
19590;BME280;12231;42.782;23.388;2023-02-23T04:45:25;95509.22;;;2.27;100.00
19590;BME280;12231;42.782;23.388;2023-02-23T04:47:51;95513.34;;;2.31;100.00
19590;BME280;12231;42.782;23.388;2023-02-23T04:50:17;95511.84;;;2.24;100.00
19590;BME280;12231;42.782;23.388;2023-02-23T04:52:43;95516.22;;;2.19;100.00
19590;BME280;12231;42.782;23.388;2023-02-23T04:55:16;95517.94;;;2.18;100.00
19590;BME280;12231;42.782;23.388;2023-02-23T04:57:42;95512.97;;;2.14;100.00
19590;BME280;12231;42.782;23.388;2023-02-23T05:00:08;95511.28;;;2.14;100.00
19590;BME280;12231;42.782;23.388;2023-02-23T05:02:34;95514.78;;;2.10;100.00
19590;BME280;12231;42.782;23.388;2023-02-23T05:04:59;95507.19;;;2.09;100.00
19590;BME280;12231;42.782;23.388;2023-02-23T05:07:25;95516.31;;;2.16;100.00
19590;BME280;12231;42.782;23.388;2023-02-23T05:09:50;95516.97;;;2.22;100.00
19590;BME280;12231;42.782;23.388;2023-02-23T05:12:15;95517.78;;;2.23;100.00
19590;BME280;12231;42.782;23.388;2023-02-23T05:14:41;95516.97;;;2.22;100.00
19590;BME280;12231;42.782;23.388;2023-02-23T05:17:06;95514.38;;;2.24;100.00
19590;BME280;12231;42.782;23.388;2023-02-23T05:19:32;95522.06;;;2.22;100.00
19590;BME280;12231;42.782;23.388;2023-02-23T05:21:58;95515.09;;;2.29;100.00
19590;BME280;12231;42.782;23.388;2023-02-23T05:24:23;95518.19;;;2.38;100.00
19590;BME280;12231;42.782;23.388;2023-02-23T05:26:49;95520.41;;;2.49;100.00
19590;BME280;12231;42.782;23.388;2023-02-23T05:29:15;95520.28;;;2.53;100.00
19590;BME280;12231;42.782;23.388;2023-02-23T05:31:40;95517.03;;;2.48;100.00
19590;BME280;12231;42.782;23.388;2023-02-23T05:34:06;95516.72;;;2.59;100.00
19590;BME280;12231;42.782;23.388;2023-02-23T05:36:31;95521.28;;;2.75;100.00
19590;BME280;12231;42.782;23.388;2023-02-23T05:38:57;95526.69;;;2.93;100.00
19590;BME280;12231;42.782;23.388;2023-02-23T05:41:22;95530.91;;;3.20;100.00
19590;BME280;12231;42.782;23.388;2023-02-23T05:43:49;95527.44;;;3.47;100.00
19590;BME280;12231;42.782;23.388;2023-02-23T05:46:23;95531.47;;;3.78;100.00
19590;BME280;12231;42.782;23.388;2023-02-23T05:48:49;95536.59;;;4.01;100.00
19590;BME280;12231;42.782;23.388;2023-02-23T05:51:16;95540.31;;;4.16;99.87
19590;BME280;12231;42.782;23.388;2023-02-23T05:53:42;95545.84;;;4.27;99.21
19590;BME280;12231;42.782;23.388;2023-02-23T05:56:12;95554.09;;;4.57;98.43
19590;BME280;12231;42.782;23.388;2023-02-23T05:58:37;95554.22;;;4.75;96.04
19590;BME280;12231;42.782;23.388;2023-02-23T06:01:03;95553.69;;;5.32;92.44
19590;BME280;12231;42.782;23.388;2023-02-23T06:03:28;95566.41;;;5.75;88.77
19590;BME280;12231;42.782;23.388;2023-02-23T06:05:56;95562.13;;;6.16;84.42
19590;BME280;12231;42.782;23.388;2023-02-23T06:08:23;95573.38;;;7.06;80.42
19590;BME280;12231;42.782;23.388;2023-02-23T06:10:50;95567.66;;;7.54;76.38
19590;BME280;12231;42.782;23.388;2023-02-23T06:13:15;95573.16;;;8.31;74.52
19590;BME280;12231;42.782;23.388;2023-02-23T06:15:41;95571.25;;;8.68;71.36
19590;BME280;12231;42.782;23.388;2023-02-23T06:18:07;95568.53;;;9.33;67.54
19590;BME280;12231;42.782;23.388;2023-02-23T06:20:34;95566.41;;;9.70;65.12
19590;BME280;12231;42.782;23.388;2023-02-23T06:22:59;95571.88;;;9.94;64.60
19590;BME280;12231;42.782;23.388;2023-02-23T06:25:25;95564.81;;;10.27;62.92
19590;BME280;12231;42.782;23.388;2023-02-23T06:27:50;95559.84;;;10.66;61.39
19590;BME280;12231;42.782;23.388;2023-02-23T06:30:16;95556.63;;;10.91;61.56
19590;BME280;12231;42.782;23.388;2023-02-23T06:32:42;95559.56;;;11.26;59.87
19590;BME280;12231;42.782;23.388;2023-02-23T06:35:07;95555.69;;;11.59;59.29
19590;BME280;12231;42.782;23.388;2023-02-23T06:37:34;95557.50;;;11.71;59.08
19590;BME280;12231;42.782;23.388;2023-02-23T06:40:01;95557.69;;;11.95;58.92
19590;BME280;12231;42.782;23.388;2023-02-23T06:42:26;95560.81;;;12.50;57.33
19590;BME280;12231;42.782;23.388;2023-02-23T06:44:52;95559.97;;;12.75;56.69
19590;BME280;12231;42.782;23.388;2023-02-23T06:47:17;95558.59;;;13.07;55.94
19590;BME280;12231;42.782;23.388;2023-02-23T06:49:42;95567.41;;;13.40;54.50
19590;BME280;12231;42.782;23.388;2023-02-23T06:52:09;95555.84;;;13.57;54.24
19590;BME280;12231;42.782;23.388;2023-02-23T06:54:34;95555.22;;;13.53;53.90
19590;BME280;12231;42.782;23.388;2023-02-23T06:57:02;95554.19;;;13.79;53.59
19590;BME280;12231;42.782;23.388;2023-02-23T06:59:27;95556.53;;;14.06;53.46
19590;BME280;12231;42.782;23.388;2023-02-23T07:01:54;95545.91;;;14.44;53.13
19590;BME280;12231;42.782;23.388;2023-02-23T07:04:20;95547.94;;;14.73;51.59
19590;BME280;12231;42.782;23.388;2023-02-23T07:06:45;95546.88;;;15.09;51.14
19590;BME280;12231;42.782;23.388;2023-02-23T07:09:11;95538.47;;;15.39;50.92
19590;BME280;12231;42.782;23.388;2023-02-23T07:11:36;95534.47;;;15.77;49.21
19590;BME280;12231;42.782;23.388;2023-02-23T07:14:02;95539.81;;;15.96;49.38
19590;BME280;12231;42.782;23.388;2023-02-23T07:16:28;95531.50;;;16.43;49.08
19590;BME280;12231;42.782;23.388;2023-02-23T07:18:54;95535.25;;;16.71;47.52
19590;BME280;12231;42.782;23.388;2023-02-23T07:21:20;95541.50;;;16.89;46.52
19590;BME280;12231;42.782;23.388;2023-02-23T07:23:46;95546.03;;;17.27;46.25
19590;BME280;12231;42.782;23.388;2023-02-23T07:26:15;95537.38;;;17.75;47.48
19590;BME280;12231;42.782;23.388;2023-02-23T07:28:42;95531.03;;;17.97;44.92
19590;BME280;12231;42.782;23.388;2023-02-23T07:31:07;95532.66;;;18.36;43.32
19590;BME280;12231;42.782;23.388;2023-02-23T07:33:32;95531.19;;;18.24;44.06
19590;BME280;12231;42.782;23.388;2023-02-23T07:35:58;95536.41;;;17.96;46.90
19590;BME280;12231;42.782;23.388;2023-02-23T07:38:23;95519.44;;;19.40;45.62
19590;BME280;12231;42.782;23.388;2023-02-23T07:40:49;95520.16;;;20.29;41.56
19590;BME280;12231;42.782;23.388;2023-02-23T07:43:15;95516.88;;;20.10;41.02
19590;BME280;12231;42.782;23.388;2023-02-23T07:45:40;95517.50;;;20.12;40.60
19590;BME280;12231;42.782;23.388;2023-02-23T07:48:06;95515.38;;;20.25;40.57
19590;BME280;12231;42.782;23.388;2023-02-23T07:50:31;95515.38;;;19.90;41.09
19590;BME280;12231;42.782;23.388;2023-02-23T07:52:57;95520.81;;;21.00;39.75
19590;BME280;12231;42.782;23.388;2023-02-23T07:55:24;95514.16;;;21.71;37.77
19590;BME280;12231;42.782;23.388;2023-02-23T07:57:49;95514.75;;;21.41;37.57
19590;BME280;12231;42.782;23.388;2023-02-23T08:00:15;95517.72;;;21.46;38.40
19590;BME280;12231;42.782;23.388;2023-02-23T08:02:40;95516.38;;;21.84;37.30
19590;BME280;12231;42.782;23.388;2023-02-23T08:05:13;95499.16;;;22.30;36.83
19590;BME280;12231;42.782;23.388;2023-02-23T08:07:38;95500.13;;;22.69;35.96
19590;BME280;12231;42.782;23.388;2023-02-23T08:10:41;95498.16;;;22.71;35.83
19590;BME280;12231;42.782;23.388;2023-02-23T08:13:07;95501.31;;;22.58;35.69
19590;BME280;12231;42.782;23.388;2023-02-23T08:15:33;95505.22;;;22.62;35.88
19590;BME280;12231;42.782;23.388;2023-02-23T08:17:58;95509.50;;;22.31;36.79
19590;BME280;12231;42.782;23.388;2023-02-23T08:20:24;95494.16;;;22.99;36.38
19590;BME280;12231;42.782;23.388;2023-02-23T08:22:56;95501.19;;;23.06;36.94
19590;BME280;12231;42.782;23.388;2023-02-23T08:25:23;95499.00;;;22.63;36.79
19590;BME280;12231;42.782;23.388;2023-02-23T08:27:49;95505.72;;;22.66;36.21
19590;BME280;12231;42.782;23.388;2023-02-23T08:30:19;95500.03;;;23.09;35.24
19590;BME280;12231;42.782;23.388;2023-02-23T08:32:45;95498.22;;;24.09;33.34
19590;BME280;12231;42.782;23.388;2023-02-23T08:35:11;95498.06;;;24.85;32.38
19590;BME280;12231;42.782;23.388;2023-02-23T08:37:37;95494.44;;;25.30;31.21
19590;BME280;12231;42.782;23.388;2023-02-23T08:40:03;95490.25;;;25.50;30.54
19590;BME280;12231;42.782;23.388;2023-02-23T08:42:29;95491.63;;;25.82;29.75
19590;BME280;12231;42.782;23.388;2023-02-23T08:44:54;95491.53;;;25.39;31.00
19590;BME280;12231;42.782;23.388;2023-02-23T08:47:20;95486.53;;;24.49;31.74
19590;BME280;12231;42.782;23.388;2023-02-23T08:49:50;95499.22;;;24.68;31.52
19590;BME280;12231;42.782;23.388;2023-02-23T08:52:16;95490.78;;;25.31;31.77
19590;BME280;12231;42.782;23.388;2023-02-23T08:54:41;95490.25;;;24.55;31.27
19590;BME280;12231;42.782;23.388;2023-02-23T08:57:07;95491.19;;;23.41;33.04
19590;BME280;12231;42.782;23.388;2023-02-23T08:59:32;95485.88;;;23.79;32.37
19590;BME280;12231;42.782;23.388;2023-02-23T09:01:58;95492.75;;;24.33;32.63
19590;BME280;12231;42.782;23.388;2023-02-23T09:04:23;95486.88;;;24.46;32.24
19590;BME280;12231;42.782;23.388;2023-02-23T09:06:49;95482.91;;;24.65;31.95
19590;BME280;12231;42.782;23.388;2023-02-23T09:09:15;95484.56;;;24.06;32.25
19590;BME280;12231;42.782;23.388;2023-02-23T09:11:41;95483.25;;;24.10;33.05
19590;BME280;12231;42.782;23.388;2023-02-23T09:14:07;95478.22;;;23.92;33.02
19590;BME280;12231;42.782;23.388;2023-02-23T09:16:33;95487.34;;;23.82;32.93
19590;BME280;12231;42.782;23.388;2023-02-23T09:19:00;95486.81;;;23.64;33.75
19590;BME280;12231;42.782;23.388;2023-02-23T09:21:26;95488.13;;;24.35;32.89
19590;BME280;12231;42.782;23.388;2023-02-23T09:23:54;95474.16;;;25.16;31.41
19590;BME280;12231;42.782;23.388;2023-02-23T09:26:21;95474.69;;;25.40;30.82
19590;BME280;12231;42.782;23.388;2023-02-23T09:28:47;95470.13;;;26.27;30.89
19590;BME280;12231;42.782;23.388;2023-02-23T09:31:15;95471.28;;;26.94;30.40
19590;BME280;12231;42.782;23.388;2023-02-23T09:33:41;95470.59;;;27.54;28.25
19590;BME280;12231;42.782;23.388;2023-02-23T09:36:12;95463.16;;;27.83;27.63
19590;BME280;12231;42.782;23.388;2023-02-23T09:38:43;95482.03;;;24.35;31.64
19590;BME280;12231;42.782;23.388;2023-02-23T09:49:52;95466.19;;;26.16;31.01
19590;BME280;12231;42.782;23.388;2023-02-23T09:52:23;95463.75;;;26.15;29.96
19590;BME280;12231;42.782;23.388;2023-02-23T09:54:50;95463.94;;;26.13;29.94
19590;BME280;12231;42.782;23.388;2023-02-23T09:57:23;95470.59;;;25.74;30.49
19590;BME280;12231;42.782;23.388;2023-02-23T09:59:52;95457.75;;;26.55;30.03
19590;BME280;12231;42.782;23.388;2023-02-23T10:05:15;95464.47;;;24.65;31.91
19590;BME280;12231;42.782;23.388;2023-02-23T10:07:51;95463.59;;;25.45;30.73
19590;BME280;12231;42.782;23.388;2023-02-23T10:13:23;95455.56;;;24.80;32.01
19590;BME280;12231;42.782;23.388;2023-02-23T10:21:06;95443.66;;;25.13;32.28
19590;BME280;12231;42.782;23.388;2023-02-23T10:24:34;95448.44;;;25.53;31.04
19590;BME280;12231;42.782;23.388;2023-02-23T10:26:40;95439.94;;;25.37;30.82
19590;BME280;12231;42.782;23.388;2023-02-23T10:29:21;95441.78;;;24.04;33.25
19590;BME280;12231;42.782;23.388;2023-02-23T10:31:50;95442.94;;;23.18;34.82
19590;BME280;12231;42.782;23.388;2023-02-23T10:34:18;95425.13;;;24.11;33.98
19590;BME280;12231;42.782;23.388;2023-02-23T10:39:12;95426.22;;;24.83;31.54
19590;BME280;12231;42.782;23.388;2023-02-23T10:41:38;95421.47;;;25.22;31.47
19590;BME280;12231;42.782;23.388;2023-02-23T10:44:14;95423.03;;;24.88;31.46
19590;BME280;12231;42.782;23.388;2023-02-23T10:46:42;95423.63;;;24.46;32.22
19590;BME280;12231;42.782;23.388;2023-02-23T10:49:19;95422.28;;;22.60;34.24
19590;BME280;12231;42.782;23.388;2023-02-23T10:51:48;95421.72;;;21.78;35.88
19590;BME280;12231;42.782;23.388;2023-02-23T10:57:00;95405.91;;;22.34;35.50
19590;BME280;12231;42.782;23.388;2023-02-23T10:59:26;95406.91;;;21.52;38.42
19590;BME280;12231;42.782;23.388;2023-02-23T11:01:52;95403.66;;;21.83;36.61
19590;BME280;12231;42.782;23.388;2023-02-23T11:04:26;95399.91;;;21.77;36.95
19590;BME280;12231;42.782;23.388;2023-02-23T11:07:19;95399.72;;;21.95;35.61
19590;BME280;12231;42.782;23.388;2023-02-23T11:09:45;95389.38;;;22.01;36.20
19590;BME280;12231;42.782;23.388;2023-02-23T11:14:39;95392.47;;;20.23;38.44
19590;BME280;12231;42.782;23.388;2023-02-23T11:20:13;95384.22;;;20.70;38.32
19590;BME280;12231;42.782;23.388;2023-02-23T11:22:43;95386.91;;;20.01;39.86
19590;BME280;12231;42.782;23.388;2023-02-23T11:25:23;95380.22;;;20.24;39.34
19590;BME280;12231;42.782;23.388;2023-02-23T11:27:50;95374.16;;;20.49;39.19
19590;BME280;12231;42.782;23.388;2023-02-23T11:30:22;95375.19;;;20.72;38.75
19590;BME280;12231;42.782;23.388;2023-02-23T11:32:55;95372.78;;;19.68;40.93
19590;BME280;12231;42.782;23.388;2023-02-23T11:37:47;95369.19;;;19.52;42.14
19590;BME280;12231;42.782;23.388;2023-02-23T11:42:52;95355.34;;;20.28;40.26
19590;BME280;12231;42.782;23.388;2023-02-23T11:45:19;95352.53;;;20.47;39.29
19590;BME280;12231;42.782;23.388;2023-02-23T11:47:48;95351.78;;;20.29;38.74
19590;BME280;12231;42.782;23.388;2023-02-23T11:50:29;95355.78;;;20.15;39.19
19590;BME280;12231;42.782;23.388;2023-02-23T11:53:15;95347.22;;;20.13;38.15
19590;BME280;12231;42.782;23.388;2023-02-23T11:55:49;95351.56;;;19.97;38.42
19590;BME280;12231;42.782;23.388;2023-02-23T12:01:00;95349.88;;;20.39;38.13
19590;BME280;12231;42.782;23.388;2023-02-23T12:03:30;95350.63;;;20.06;39.33
19590;BME280;12231;42.782;23.388;2023-02-23T12:05:57;95355.66;;;19.99;38.87
19590;BME280;12231;42.782;23.388;2023-02-23T12:08:45;95349.63;;;20.24;38.41
19590;BME280;12231;42.782;23.388;2023-02-23T12:11:17;95347.38;;;20.12;38.32
19590;BME280;12231;42.782;23.388;2023-02-23T12:13:48;95346.34;;;19.97;38.18
19590;BME280;12231;42.782;23.388;2023-02-23T12:16:19;95338.50;;;19.54;38.52
19590;BME280;12231;42.782;23.388;2023-02-23T12:19:00;95336.09;;;19.60;38.81
19590;BME280;12231;42.782;23.388;2023-02-23T12:21:36;95328.47;;;19.67;39.71
19590;BME280;12231;42.782;23.388;2023-02-23T12:26:35;95336.94;;;19.43;38.79
19590;BME280;12231;42.782;23.388;2023-02-23T12:29:30;95337.53;;;19.20;38.77
19590;BME280;12231;42.782;23.388;2023-02-23T12:32:26;95327.13;;;19.28;38.82
19590;BME280;12231;42.782;23.388;2023-02-23T12:35:17;95330.81;;;19.17;39.97
19590;BME280;12231;42.782;23.388;2023-02-23T12:37:47;95328.28;;;18.63;40.28
19590;BME280;12231;42.782;23.388;2023-02-23T12:40:21;95331.81;;;18.71;41.21
19590;BME280;12231;42.782;23.388;2023-02-23T12:48:30;95321.47;;;18.97;38.81
19590;BME280;12231;42.782;23.388;2023-02-23T12:51:04;95325.50;;;19.27;38.64
19590;BME280;12231;42.782;23.388;2023-02-23T12:53:37;95324.47;;;19.55;38.46
19590;BME280;12231;42.782;23.388;2023-02-23T13:01:40;95306.78;;;20.00;37.47
19590;BME280;12231;42.782;23.388;2023-02-23T13:06:52;95313.84;;;19.82;37.31
19590;BME280;12231;42.782;23.388;2023-02-23T13:15:00;95311.25;;;19.56;38.21
19590;BME280;12231;42.782;23.388;2023-02-23T13:20:45;95314.69;;;19.39;36.26
19590;BME280;12231;42.782;23.388;2023-02-23T13:26:37;95312.88;;;18.69;40.63
19590;BME280;12231;42.782;23.388;2023-02-23T13:29:25;95311.25;;;19.03;44.15
19590;BME280;12231;42.782;23.388;2023-02-23T13:31:57;95313.84;;;18.41;46.26
19590;BME280;12231;42.782;23.388;2023-02-23T13:34:30;95299.88;;;18.77;46.07
19590;BME280;12231;42.782;23.388;2023-02-23T13:36:59;95301.88;;;18.66;46.79
19590;BME280;12231;42.782;23.388;2023-02-23T13:44:48;95313.53;;;18.17;49.29
19590;BME280;12231;42.782;23.388;2023-02-23T13:52:36;95319.63;;;17.33;51.38
19590;BME280;12231;42.782;23.388;2023-02-23T13:58:13;95319.47;;;17.44;51.69
19590;BME280;12231;42.782;23.388;2023-02-23T14:00:39;95326.47;;;17.34;51.65
19590;BME280;12231;42.782;23.388;2023-02-23T14:03:07;95320.84;;;17.29;52.17
19590;BME280;12231;42.782;23.388;2023-02-23T14:05:44;95331.69;;;16.96;53.55
19590;BME280;12231;42.782;23.388;2023-02-23T14:08:36;95334.97;;;16.79;53.83
19590;BME280;12231;42.782;23.388;2023-02-23T14:11:04;95340.56;;;16.65;54.06
19590;BME280;12231;42.782;23.388;2023-02-23T14:13:32;95357.34;;;16.12;56.18
19590;BME280;12231;42.782;23.388;2023-02-23T14:16:17;95354.16;;;15.78;57.08
19590;BME280;12231;42.782;23.388;2023-02-23T14:19:13;95353.56;;;15.34;58.90
19590;BME280;12231;42.782;23.388;2023-02-23T14:21:49;95347.00;;;15.30;59.59
19590;BME280;12231;42.782;23.388;2023-02-23T14:24:24;95343.66;;;15.39;59.36
19590;BME280;12231;42.782;23.388;2023-02-23T14:32:41;95345.03;;;15.22;60.78
19590;BME280;12231;42.782;23.388;2023-02-23T14:38:10;95362.41;;;14.79;60.92
19590;BME280;12231;42.782;23.388;2023-02-23T14:40:41;95359.88;;;14.57;62.75
19590;BME280;12231;42.782;23.388;2023-02-23T14:46:00;95369.06;;;14.61;62.78
19590;BME280;12231;42.782;23.388;2023-02-23T14:48:30;95368.28;;;14.38;63.35
19590;BME280;12231;42.782;23.388;2023-02-23T14:51:18;95366.75;;;14.25;63.75
19590;BME280;12231;42.782;23.388;2023-02-23T14:53:45;95366.16;;;14.21;63.96
19590;BME280;12231;42.782;23.388;2023-02-23T14:56:19;95368.38;;;14.15;64.64
19590;BME280;12231;42.782;23.388;2023-02-23T14:58:50;95371.78;;;14.15;64.32
19590;BME280;12231;42.782;23.388;2023-02-23T15:01:33;95381.06;;;13.62;66.02
19590;BME280;12231;42.782;23.388;2023-02-23T15:04:25;95387.09;;;13.74;66.16
19590;BME280;12231;42.782;23.388;2023-02-23T15:06:58;95384.41;;;13.41;66.93
19590;BME280;12231;42.782;23.388;2023-02-23T15:09:39;95386.41;;;13.48;66.85